sensor_id;sensor_type;location;lat;lon;timestamp;temperature;humidity
10089;DHT22;51898;49.864;8.550;2023-08-08T00:01:10;13.70;81.10
10089;DHT22;51898;49.864;8.550;2023-08-08T00:04:11;13.70;81.10
10089;DHT22;51898;49.864;8.550;2023-08-08T00:07:13;13.70;81.10
10089;DHT22;51898;49.864;8.550;2023-08-08T00:10:15;13.70;81.30
10089;DHT22;51898;49.864;8.550;2023-08-08T00:13:16;13.80;81.40
10089;DHT22;51898;49.864;8.550;2023-08-08T00:16:18;13.80;81.50
10089;DHT22;51898;49.864;8.550;2023-08-08T00:19:20;13.80;81.70
10089;DHT22;51898;49.864;8.550;2023-08-08T00:22:21;13.80;81.70
10089;DHT22;51898;49.864;8.550;2023-08-08T00:25:23;13.80;81.80
10089;DHT22;51898;49.864;8.550;2023-08-08T00:28:25;13.80;81.60
10089;DHT22;51898;49.864;8.550;2023-08-08T00:31:26;13.80;81.70
10089;DHT22;51898;49.864;8.550;2023-08-08T00:34:28;13.70;82.00
10089;DHT22;51898;49.864;8.550;2023-08-08T00:37:30;13.70;82.00
10089;DHT22;51898;49.864;8.550;2023-08-08T00:40:31;13.70;82.10
10089;DHT22;51898;49.864;8.550;2023-08-08T00:43:33;13.70;82.20
10089;DHT22;51898;49.864;8.550;2023-08-08T00:46:35;13.70;82.20
10089;DHT22;51898;49.864;8.550;2023-08-08T00:49:37;13.70;82.50
10089;DHT22;51898;49.864;8.550;2023-08-08T00:52:40;13.70;82.70
10089;DHT22;51898;49.864;8.550;2023-08-08T00:55:42;13.70;82.60
10089;DHT22;51898;49.864;8.550;2023-08-08T00:58:44;13.70;82.80
10089;DHT22;51898;49.864;8.550;2023-08-08T01:01:52;13.70;82.90
10089;DHT22;51898;49.864;8.550;2023-08-08T01:34:44;13.40;83.80
10089;DHT22;51898;49.864;8.550;2023-08-08T01:38:34;13.40;84.00
10089;DHT22;51898;49.864;8.550;2023-08-08T01:41:27;13.40;83.90
10089;DHT22;51898;49.864;8.550;2023-08-08T01:44:30;13.40;83.90
10089;DHT22;51898;49.864;8.550;2023-08-08T01:47:34;13.40;83.90
10089;DHT22;51898;49.864;8.550;2023-08-08T01:50:37;13.40;83.90
10089;DHT22;51898;49.864;8.550;2023-08-08T01:53:39;13.40;83.80
10089;DHT22;51898;49.864;8.550;2023-08-08T01:56:41;13.40;83.80
10089;DHT22;51898;49.864;8.550;2023-08-08T01:59:44;13.30;84.00
10089;DHT22;51898;49.864;8.550;2023-08-08T02:02:46;13.30;83.90
10089;DHT22;51898;49.864;8.550;2023-08-08T02:05:48;13.20;84.20
10089;DHT22;51898;49.864;8.550;2023-08-08T02:08:50;13.20;84.20
10089;DHT22;51898;49.864;8.550;2023-08-08T02:11:51;13.10;84.60
10089;DHT22;51898;49.864;8.550;2023-08-08T02:14:53;13.10;84.70
10089;DHT22;51898;49.864;8.550;2023-08-08T02:17:55;13.10;84.90
10089;DHT22;51898;49.864;8.550;2023-08-08T02:20:56;13.00;85.20
10089;DHT22;51898;49.864;8.550;2023-08-08T02:23:58;12.90;85.40
10089;DHT22;51898;49.864;8.550;2023-08-08T02:27:00;12.90;85.70
10089;DHT22;51898;49.864;8.550;2023-08-08T02:30:02;12.80;85.80
10089;DHT22;51898;49.864;8.550;2023-08-08T02:33:04;12.80;85.90
10089;DHT22;51898;49.864;8.550;2023-08-08T02:36:06;12.70;86.10
10089;DHT22;51898;49.864;8.550;2023-08-08T02:39:07;12.60;86.40
10089;DHT22;51898;49.864;8.550;2023-08-08T02:42:09;12.50;86.80
10089;DHT22;51898;49.864;8.550;2023-08-08T02:45:11;12.40;87.20
10089;DHT22;51898;49.864;8.550;2023-08-08T02:48:13;12.30;87.60
10089;DHT22;51898;49.864;8.550;2023-08-08T02:51:14;12.20;88.10
10089;DHT22;51898;49.864;8.550;2023-08-08T02:54:16;12.10;88.50
10089;DHT22;51898;49.864;8.550;2023-08-08T02:57:17;12.00;89.00
10089;DHT22;51898;49.864;8.550;2023-08-08T03:00:19;12.00;89.00
10089;DHT22;51898;49.864;8.550;2023-08-08T03:03:21;11.90;89.10
10089;DHT22;51898;49.864;8.550;2023-08-08T03:06:23;11.80;89.40
10089;DHT22;51898;49.864;8.550;2023-08-08T03:09:24;11.80;89.70
10089;DHT22;51898;49.864;8.550;2023-08-08T03:12:26;11.70;89.90
10089;DHT22;51898;49.864;8.550;2023-08-08T03:15:27;11.60;90.40
10089;DHT22;51898;49.864;8.550;2023-08-08T03:18:29;11.60;90.50
10089;DHT22;51898;49.864;8.550;2023-08-08T03:21:31;11.50;90.70
10089;DHT22;51898;49.864;8.550;2023-08-08T03:24:33;11.50;90.80
10089;DHT22;51898;49.864;8.550;2023-08-08T03:27:34;11.50;90.80
10089;DHT22;51898;49.864;8.550;2023-08-08T03:30:37;11.40;90.90
10089;DHT22;51898;49.864;8.550;2023-08-08T03:33:39;11.40;91.00
10089;DHT22;51898;49.864;8.550;2023-08-08T03:36:42;11.40;91.30
10089;DHT22;51898;49.864;8.550;2023-08-08T03:39:44;11.40;91.30
10089;DHT22;51898;49.864;8.550;2023-08-08T03:42:45;11.40;91.30
10089;DHT22;51898;49.864;8.550;2023-08-08T03:45:47;11.30;91.30
10089;DHT22;51898;49.864;8.550;2023-08-08T03:48:49;11.30;91.50
10089;DHT22;51898;49.864;8.550;2023-08-08T03:51:54;11.30;91.70
10089;DHT22;51898;49.864;8.550;2023-08-08T03:54:56;11.30;91.30
10089;DHT22;51898;49.864;8.550;2023-08-08T03:57:58;11.20;91.70
10089;DHT22;51898;49.864;8.550;2023-08-08T04:01:02;11.20;91.70
10089;DHT22;51898;49.864;8.550;2023-08-08T04:04:04;11.20;91.70
10089;DHT22;51898;49.864;8.550;2023-08-08T04:07:07;11.10;91.90
10089;DHT22;51898;49.864;8.550;2023-08-08T04:10:08;11.10;92.20
10089;DHT22;51898;49.864;8.550;2023-08-08T04:13:10;11.10;92.30
10089;DHT22;51898;49.864;8.550;2023-08-08T04:16:12;11.10;92.20
10089;DHT22;51898;49.864;8.550;2023-08-08T04:19:14;11.10;92.30
10089;DHT22;51898;49.864;8.550;2023-08-08T04:22:16;11.10;92.60
10089;DHT22;51898;49.864;8.550;2023-08-08T04:25:18;11.10;92.80
10089;DHT22;51898;49.864;8.550;2023-08-08T04:28:22;11.10;92.80
10089;DHT22;51898;49.864;8.550;2023-08-08T04:31:24;11.20;92.70
10089;DHT22;51898;49.864;8.550;2023-08-08T04:34:27;11.20;92.80
10089;DHT22;51898;49.864;8.550;2023-08-08T04:37:29;11.20;92.80
10089;DHT22;51898;49.864;8.550;2023-08-08T04:40:30;11.30;92.90
10089;DHT22;51898;49.864;8.550;2023-08-08T04:43:32;11.40;93.00
10089;DHT22;51898;49.864;8.550;2023-08-08T04:46:34;11.60;92.80
10089;DHT22;51898;49.864;8.550;2023-08-08T04:49:36;11.80;92.20
10089;DHT22;51898;49.864;8.550;2023-08-08T04:52:37;12.10;91.50
10089;DHT22;51898;49.864;8.550;2023-08-08T04:55:39;12.40;90.20
10089;DHT22;51898;49.864;8.550;2023-08-08T04:58:41;12.50;88.80
10089;DHT22;51898;49.864;8.550;2023-08-08T05:01:46;12.70;87.90
10089;DHT22;51898;49.864;8.550;2023-08-08T05:04:47;12.90;87.20
10089;DHT22;51898;49.864;8.550;2023-08-08T05:07:49;12.90;86.50
10089;DHT22;51898;49.864;8.550;2023-08-08T05:10:51;13.00;86.20
10089;DHT22;51898;49.864;8.550;2023-08-08T05:13:53;13.10;85.60
10089;DHT22;51898;49.864;8.550;2023-08-08T05:16:54;13.10;85.90
10089;DHT22;51898;49.864;8.550;2023-08-08T05:19:56;13.20;86.00
10089;DHT22;51898;49.864;8.550;2023-08-08T05:22:58;13.20;85.80
10089;DHT22;51898;49.864;8.550;2023-08-08T05:25:59;13.30;85.40
10089;DHT22;51898;49.864;8.550;2023-08-08T05:29:01;13.30;85.50
10089;DHT22;51898;49.864;8.550;2023-08-08T05:32:04;13.40;85.60
10089;DHT22;51898;49.864;8.550;2023-08-08T05:35:08;13.50;85.80
10089;DHT22;51898;49.864;8.550;2023-08-08T05:38:09;13.60;85.50
10089;DHT22;51898;49.864;8.550;2023-08-08T05:41:11;13.70;85.50
10089;DHT22;51898;49.864;8.550;2023-08-08T05:44:13;13.90;85.00
10089;DHT22;51898;49.864;8.550;2023-08-08T05:47:14;14.00;84.50
10089;DHT22;51898;49.864;8.550;2023-08-08T05:50:16;14.10;84.60
10089;DHT22;51898;49.864;8.550;2023-08-08T05:53:18;14.20;84.20
10089;DHT22;51898;49.864;8.550;2023-08-08T05:56:20;14.40;83.40
10089;DHT22;51898;49.864;8.550;2023-08-08T05:59:21;14.50;83.20
10089;DHT22;51898;49.864;8.550;2023-08-08T06:02:23;14.60;82.60
10089;DHT22;51898;49.864;8.550;2023-08-08T06:05:25;14.80;82.10
10089;DHT22;51898;49.864;8.550;2023-08-08T06:08:27;14.80;81.60
10089;DHT22;51898;49.864;8.550;2023-08-08T06:11:28;14.90;81.00
10089;DHT22;51898;49.864;8.550;2023-08-08T06:14:30;15.00;81.10
10089;DHT22;51898;49.864;8.550;2023-08-08T06:17:32;15.10;80.60
10089;DHT22;51898;49.864;8.550;2023-08-08T06:20:34;15.30;80.30
10089;DHT22;51898;49.864;8.550;2023-08-08T06:23:36;15.40;79.60
10089;DHT22;51898;49.864;8.550;2023-08-08T06:26:37;15.50;79.40
10089;DHT22;51898;49.864;8.550;2023-08-08T06:29:39;15.60;78.20
10089;DHT22;51898;49.864;8.550;2023-08-08T06:32:41;15.70;78.20
10089;DHT22;51898;49.864;8.550;2023-08-08T06:35:43;15.80;77.90
10089;DHT22;51898;49.864;8.550;2023-08-08T06:38:45;15.90;77.50
10089;DHT22;51898;49.864;8.550;2023-08-08T06:41:48;16.00;76.80
10089;DHT22;51898;49.864;8.550;2023-08-08T06:44:49;16.10;77.00
10089;DHT22;51898;49.864;8.550;2023-08-08T06:47:51;16.20;77.10
10089;DHT22;51898;49.864;8.550;2023-08-08T06:50:53;16.30;76.10
10089;DHT22;51898;49.864;8.550;2023-08-08T06:53:55;16.30;76.10
10089;DHT22;51898;49.864;8.550;2023-08-08T06:56:56;16.40;76.20
10089;DHT22;51898;49.864;8.550;2023-08-08T07:00:02;16.40;76.50
10089;DHT22;51898;49.864;8.550;2023-08-08T07:03:06;16.60;75.80
10089;DHT22;51898;49.864;8.550;2023-08-08T07:06:09;16.70;74.70
10089;DHT22;51898;49.864;8.550;2023-08-08T07:09:11;16.80;75.10
10089;DHT22;51898;49.864;8.550;2023-08-08T07:12:16;17.00;73.70
10089;DHT22;51898;49.864;8.550;2023-08-08T07:15:19;17.10;72.70
10089;DHT22;51898;49.864;8.550;2023-08-08T07:18:21;17.10;71.60
10089;DHT22;51898;49.864;8.550;2023-08-08T07:21:22;17.10;71.40
10089;DHT22;51898;49.864;8.550;2023-08-08T07:24:27;17.20;71.30
10089;DHT22;51898;49.864;8.550;2023-08-08T07:27:30;17.40;70.80
10089;DHT22;51898;49.864;8.550;2023-08-08T07:30:32;17.50;70.30
10089;DHT22;51898;49.864;8.550;2023-08-08T07:33:34;17.50;69.60
10089;DHT22;51898;49.864;8.550;2023-08-08T07:36:36;17.70;69.00
10089;DHT22;51898;49.864;8.550;2023-08-08T07:39:37;17.90;67.00
10089;DHT22;51898;49.864;8.550;2023-08-08T07:42:39;18.10;67.30
10089;DHT22;51898;49.864;8.550;2023-08-08T07:45:41;18.30;66.40
10089;DHT22;51898;49.864;8.550;2023-08-08T07:48:43;18.30;65.70
10089;DHT22;51898;49.864;8.550;2023-08-08T07:51:45;18.40;65.10
10089;DHT22;51898;49.864;8.550;2023-08-08T07:54:46;18.60;66.10
10089;DHT22;51898;49.864;8.550;2023-08-08T07:57:51;18.70;65.80
10089;DHT22;51898;49.864;8.550;2023-08-08T08:00:53;18.50;64.70
10089;DHT22;51898;49.864;8.550;2023-08-08T08:03:55;18.40;64.60
10089;DHT22;51898;49.864;8.550;2023-08-08T08:06:56;18.50;64.00
10089;DHT22;51898;49.864;8.550;2023-08-08T08:09:58;18.70;62.20
10089;DHT22;51898;49.864;8.550;2023-08-08T08:13:00;18.70;63.20
10089;DHT22;51898;49.864;8.550;2023-08-08T08:16:02;18.70;63.40
10089;DHT22;51898;49.864;8.550;2023-08-08T08:19:03;19.10;62.20
10089;DHT22;51898;49.864;8.550;2023-08-08T08:22:05;19.20;62.60
10089;DHT22;51898;49.864;8.550;2023-08-08T08:25:07;19.50;62.00
10089;DHT22;51898;49.864;8.550;2023-08-08T08:28:10;19.80;61.10
10089;DHT22;51898;49.864;8.550;2023-08-08T08:31:13;19.90;57.70
10089;DHT22;51898;49.864;8.550;2023-08-08T08:34:15;20.00;57.40
10089;DHT22;51898;49.864;8.550;2023-08-08T08:37:16;19.90;55.00
10089;DHT22;51898;49.864;8.550;2023-08-08T08:40:18;19.70;52.70
10089;DHT22;51898;49.864;8.550;2023-08-08T08:43:20;19.60;53.20
10089;DHT22;51898;49.864;8.550;2023-08-08T08:46:22;19.50;53.70
10089;DHT22;51898;49.864;8.550;2023-08-08T08:49:24;19.50;53.20
10089;DHT22;51898;49.864;8.550;2023-08-08T08:52:26;19.50;54.00
10089;DHT22;51898;49.864;8.550;2023-08-08T08:55:28;19.60;53.20
10089;DHT22;51898;49.864;8.550;2023-08-08T08:58:30;19.80;53.50
10089;DHT22;51898;49.864;8.550;2023-08-08T09:01:32;19.70;52.60
10089;DHT22;51898;49.864;8.550;2023-08-08T09:04:34;19.40;52.90
10089;DHT22;51898;49.864;8.550;2023-08-08T09:07:36;19.30;53.70
10089;DHT22;51898;49.864;8.550;2023-08-08T09:10:38;19.30;53.50
10089;DHT22;51898;49.864;8.550;2023-08-08T09:13:40;19.50;53.90
10089;DHT22;51898;49.864;8.550;2023-08-08T09:16:43;19.60;54.50
10089;DHT22;51898;49.864;8.550;2023-08-08T09:19:45;19.60;53.60
10089;DHT22;51898;49.864;8.550;2023-08-08T09:22:48;19.70;54.40
10089;DHT22;51898;49.864;8.550;2023-08-08T09:25:50;19.90;55.40
10089;DHT22;51898;49.864;8.550;2023-08-08T09:28:52;20.10;52.80
10089;DHT22;51898;49.864;8.550;2023-08-08T09:31:54;20.10;53.50
10089;DHT22;51898;49.864;8.550;2023-08-08T09:34:56;20.20;53.10
10089;DHT22;51898;49.864;8.550;2023-08-08T09:37:59;20.30;54.20
10089;DHT22;51898;49.864;8.550;2023-08-08T09:41:00;20.30;55.40
10089;DHT22;51898;49.864;8.550;2023-08-08T09:44:02;20.40;53.30
10089;DHT22;51898;49.864;8.550;2023-08-08T09:47:04;20.30;53.70
10089;DHT22;51898;49.864;8.550;2023-08-08T09:50:07;20.50;54.90
10089;DHT22;51898;49.864;8.550;2023-08-08T09:53:10;20.40;53.00
10089;DHT22;51898;49.864;8.550;2023-08-08T09:56:14;20.40;52.40
10089;DHT22;51898;49.864;8.550;2023-08-08T09:59:17;20.30;53.90
10089;DHT22;51898;49.864;8.550;2023-08-08T10:02:19;20.40;54.80
10089;DHT22;51898;49.864;8.550;2023-08-08T10:05:21;20.50;52.30
10089;DHT22;51898;49.864;8.550;2023-08-08T10:08:24;20.60;53.70
10089;DHT22;51898;49.864;8.550;2023-08-08T10:11:26;20.60;53.40
10089;DHT22;51898;49.864;8.550;2023-08-08T10:14:34;20.70;53.10
10089;DHT22;51898;49.864;8.550;2023-08-08T10:17:40;20.80;51.60
10089;DHT22;51898;49.864;8.550;2023-08-08T10:20:43;20.90;51.90
10089;DHT22;51898;49.864;8.550;2023-08-08T10:23:47;21.00;52.10
10089;DHT22;51898;49.864;8.550;2023-08-08T10:26:54;21.20;50.60
10089;DHT22;51898;49.864;8.550;2023-08-08T10:30:07;21.20;51.20
10089;DHT22;51898;49.864;8.550;2023-08-08T10:33:22;21.40;52.00
10089;DHT22;51898;49.864;8.550;2023-08-08T10:36:24;21.70;51.60
10089;DHT22;51898;49.864;8.550;2023-08-08T10:39:26;21.90;51.40
10089;DHT22;51898;49.864;8.550;2023-08-08T10:42:28;21.90;52.00
10089;DHT22;51898;49.864;8.550;2023-08-08T10:45:30;22.00;51.20
10089;DHT22;51898;49.864;8.550;2023-08-08T10:48:32;21.80;50.70
10089;DHT22;51898;49.864;8.550;2023-08-08T10:54:52;21.80;51.40
10089;DHT22;51898;49.864;8.550;2023-08-08T10:58:06;21.90;50.00
10089;DHT22;51898;49.864;8.550;2023-08-08T11:01:08;22.10;50.90
10089;DHT22;51898;49.864;8.550;2023-08-08T11:04:11;22.20;51.20
10089;DHT22;51898;49.864;8.550;2023-08-08T11:07:14;22.20;51.10
10089;DHT22;51898;49.864;8.550;2023-08-08T11:10:17;22.20;51.10
10089;DHT22;51898;49.864;8.550;2023-08-08T11:13:19;22.00;50.50
10089;DHT22;51898;49.864;8.550;2023-08-08T11:16:21;21.90;49.80
10089;DHT22;51898;49.864;8.550;2023-08-08T11:19:23;21.90;50.60
10089;DHT22;51898;49.864;8.550;2023-08-08T11:22:25;22.10;50.50
10089;DHT22;51898;49.864;8.550;2023-08-08T11:25:29;22.20;49.30
10089;DHT22;51898;49.864;8.550;2023-08-08T11:28:31;22.30;50.30
10089;DHT22;51898;49.864;8.550;2023-08-08T11:31:36;22.30;49.70
10089;DHT22;51898;49.864;8.550;2023-08-08T11:34:39;22.40;48.90
10089;DHT22;51898;49.864;8.550;2023-08-08T11:37:41;22.50;49.60
10089;DHT22;51898;49.864;8.550;2023-08-08T11:40:43;22.60;48.00
10089;DHT22;51898;49.864;8.550;2023-08-08T11:43:45;22.40;48.30
10089;DHT22;51898;49.864;8.550;2023-08-08T11:46:47;22.40;47.70
10089;DHT22;51898;49.864;8.550;2023-08-08T11:49:51;22.40;48.00
10089;DHT22;51898;49.864;8.550;2023-08-08T11:52:54;22.60;48.60
10089;DHT22;51898;49.864;8.550;2023-08-08T11:55:57;23.00;48.90
10089;DHT22;51898;49.864;8.550;2023-08-08T11:59:00;23.00;46.80
10089;DHT22;51898;49.864;8.550;2023-08-08T12:02:02;22.90;47.00
10089;DHT22;51898;49.864;8.550;2023-08-08T12:05:12;22.80;48.00
10089;DHT22;51898;49.864;8.550;2023-08-08T12:08:18;22.80;47.10
10089;DHT22;51898;49.864;8.550;2023-08-08T12:11:21;23.00;48.40
10089;DHT22;51898;49.864;8.550;2023-08-08T12:14:26;23.10;47.00
10089;DHT22;51898;49.864;8.550;2023-08-08T12:17:28;22.90;47.70
10089;DHT22;51898;49.864;8.550;2023-08-08T12:20:32;22.80;48.30
10089;DHT22;51898;49.864;8.550;2023-08-08T12:23:35;22.80;47.80
10089;DHT22;51898;49.864;8.550;2023-08-08T12:26:37;23.00;48.90
10089;DHT22;51898;49.864;8.550;2023-08-08T12:29:39;23.30;47.90
10089;DHT22;51898;49.864;8.550;2023-08-08T12:32:40;23.40;46.90
10089;DHT22;51898;49.864;8.550;2023-08-08T12:35:43;23.60;46.70
10089;DHT22;51898;49.864;8.550;2023-08-08T12:38:47;23.80;46.50
10089;DHT22;51898;49.864;8.550;2023-08-08T12:41:49;23.90;45.40
10089;DHT22;51898;49.864;8.550;2023-08-08T12:44:53;23.70;44.80
10089;DHT22;51898;49.864;8.550;2023-08-08T12:47:55;23.30;45.20
10089;DHT22;51898;49.864;8.550;2023-08-08T12:50:57;23.30;46.00
10089;DHT22;51898;49.864;8.550;2023-08-08T12:53:59;23.30;45.90
10089;DHT22;51898;49.864;8.550;2023-08-08T12:57:00;23.30;45.30
10089;DHT22;51898;49.864;8.550;2023-08-08T13:00:04;23.30;44.40
10089;DHT22;51898;49.864;8.550;2023-08-08T13:03:06;23.30;45.30
10089;DHT22;51898;49.864;8.550;2023-08-08T13:06:07;23.00;44.90
10089;DHT22;51898;49.864;8.550;2023-08-08T13:09:12;22.90;46.30
10089;DHT22;51898;49.864;8.550;2023-08-08T13:12:14;22.80;46.20
10089;DHT22;51898;49.864;8.550;2023-08-08T13:15:15;22.30;45.50
10089;DHT22;51898;49.864;8.550;2023-08-08T13:18:18;22.00;46.40
10089;DHT22;51898;49.864;8.550;2023-08-08T13:21:20;22.20;46.90
10089;DHT22;51898;49.864;8.550;2023-08-08T13:24:21;22.40;46.40
10089;DHT22;51898;49.864;8.550;2023-08-08T13:27:26;22.50;46.20
10089;DHT22;51898;49.864;8.550;2023-08-08T13:30:29;22.40;45.80
10089;DHT22;51898;49.864;8.550;2023-08-08T13:33:31;22.10;45.80
10089;DHT22;51898;49.864;8.550;2023-08-08T13:36:32;22.00;46.90
10089;DHT22;51898;49.864;8.550;2023-08-08T13:39:34;22.00;46.10
10089;DHT22;51898;49.864;8.550;2023-08-08T13:42:36;22.00;46.80
10089;DHT22;51898;49.864;8.550;2023-08-08T13:45:38;22.10;46.40
10089;DHT22;51898;49.864;8.550;2023-08-08T13:48:43;22.40;46.30
10089;DHT22;51898;49.864;8.550;2023-08-08T13:51:45;22.70;46.10
10089;DHT22;51898;49.864;8.550;2023-08-08T13:54:51;23.10;44.40
10089;DHT22;51898;49.864;8.550;2023-08-08T13:57:53;23.10;44.00
10089;DHT22;51898;49.864;8.550;2023-08-08T14:00:57;22.80;44.00
10089;DHT22;51898;49.864;8.550;2023-08-08T14:03:58;22.90;45.40
10089;DHT22;51898;49.864;8.550;2023-08-08T14:07:00;22.80;44.70
10089;DHT22;51898;49.864;8.550;2023-08-08T14:10:03;22.70;45.20
10089;DHT22;51898;49.864;8.550;2023-08-08T14:13:08;22.60;45.90
10089;DHT22;51898;49.864;8.550;2023-08-08T14:16:09;22.50;45.50
10089;DHT22;51898;49.864;8.550;2023-08-08T14:19:11;22.60;46.30
10089;DHT22;51898;49.864;8.550;2023-08-08T14:22:14;22.60;46.10
10089;DHT22;51898;49.864;8.550;2023-08-08T14:25:16;22.70;46.20
10089;DHT22;51898;49.864;8.550;2023-08-08T14:28:18;22.90;46.20
10089;DHT22;51898;49.864;8.550;2023-08-08T14:31:19;22.80;46.60
10089;DHT22;51898;49.864;8.550;2023-08-08T14:34:33;22.80;46.30
10089;DHT22;51898;49.864;8.550;2023-08-08T14:37:35;22.60;47.00
10089;DHT22;51898;49.864;8.550;2023-08-08T14:40:37;22.30;46.50
10089;DHT22;51898;49.864;8.550;2023-08-08T14:43:39;21.70;48.40
10089;DHT22;51898;49.864;8.550;2023-08-08T14:46:41;21.30;50.00
10089;DHT22;51898;49.864;8.550;2023-08-08T14:49:42;21.00;50.40
10089;DHT22;51898;49.864;8.550;2023-08-08T14:52:44;20.90;51.10
10089;DHT22;51898;49.864;8.550;2023-08-08T14:55:46;20.60;51.70
10089;DHT22;51898;49.864;8.550;2023-08-08T14:58:52;20.50;52.40
10089;DHT22;51898;49.864;8.550;2023-08-08T15:01:53;20.40;52.90
10089;DHT22;51898;49.864;8.550;2023-08-08T15:04:55;20.30;53.90
10089;DHT22;51898;49.864;8.550;2023-08-08T15:07:57;20.20;54.30
10089;DHT22;51898;49.864;8.550;2023-08-08T15:10:59;20.20;54.40
10089;DHT22;51898;49.864;8.550;2023-08-08T15:14:00;20.20;54.10
10089;DHT22;51898;49.864;8.550;2023-08-08T15:17:02;20.20;54.70
10089;DHT22;51898;49.864;8.550;2023-08-08T15:20:04;20.20;54.00
10089;DHT22;51898;49.864;8.550;2023-08-08T15:23:07;20.30;54.00
10089;DHT22;51898;49.864;8.550;2023-08-08T15:26:11;20.30;53.40
10089;DHT22;51898;49.864;8.550;2023-08-08T15:29:13;20.30;54.60
10089;DHT22;51898;49.864;8.550;2023-08-08T15:32:15;20.20;54.70
10089;DHT22;51898;49.864;8.550;2023-08-08T15:35:17;20.20;55.10
10089;DHT22;51898;49.864;8.550;2023-08-08T15:39:05;20.00;55.40
10089;DHT22;51898;49.864;8.550;2023-08-08T15:47:49;20.00;56.00
10089;DHT22;51898;49.864;8.550;2023-08-08T15:50:53;20.00;56.00
10089;DHT22;51898;49.864;8.550;2023-08-08T15:53:57;20.10;56.00
10089;DHT22;51898;49.864;8.550;2023-08-08T15:56:59;20.20;56.00
10089;DHT22;51898;49.864;8.550;2023-08-08T16:00:04;20.30;55.30
10089;DHT22;51898;49.864;8.550;2023-08-08T16:03:07;20.30;55.60
10089;DHT22;51898;49.864;8.550;2023-08-08T16:06:09;20.30;55.90
10089;DHT22;51898;49.864;8.550;2023-08-08T16:09:11;20.40;55.20
10089;DHT22;51898;49.864;8.550;2023-08-08T16:12:12;20.40;55.90
10089;DHT22;51898;49.864;8.550;2023-08-08T16:15:14;20.60;55.40
10089;DHT22;51898;49.864;8.550;2023-08-08T16:18:16;20.60;55.70
10089;DHT22;51898;49.864;8.550;2023-08-08T16:21:17;20.70;56.10
10089;DHT22;51898;49.864;8.550;2023-08-08T16:24:19;20.60;55.40
10089;DHT22;51898;49.864;8.550;2023-08-08T16:27:21;20.60;56.70
10089;DHT22;51898;49.864;8.550;2023-08-08T16:30:23;20.50;56.40
10089;DHT22;51898;49.864;8.550;2023-08-08T16:33:24;20.60;56.50
10089;DHT22;51898;49.864;8.550;2023-08-08T16:36:26;20.70;56.30
10089;DHT22;51898;49.864;8.550;2023-08-08T16:39:28;20.80;56.10
10089;DHT22;51898;49.864;8.550;2023-08-08T16:42:30;20.80;55.60
10089;DHT22;51898;49.864;8.550;2023-08-08T16:45:32;20.60;55.20
10089;DHT22;51898;49.864;8.550;2023-08-08T16:48:33;20.50;55.40
10089;DHT22;51898;49.864;8.550;2023-08-08T16:51:35;20.40;56.10
10089;DHT22;51898;49.864;8.550;2023-08-08T16:54:37;20.30;56.40
10089;DHT22;51898;49.864;8.550;2023-08-08T16:57:39;20.20;56.60
10089;DHT22;51898;49.864;8.550;2023-08-08T17:00:41;20.20;56.20
10089;DHT22;51898;49.864;8.550;2023-08-08T17:03:43;20.20;56.80
10089;DHT22;51898;49.864;8.550;2023-08-08T17:06:44;20.20;57.10
10089;DHT22;51898;49.864;8.550;2023-08-08T17:09:46;20.10;57.20
10089;DHT22;51898;49.864;8.550;2023-08-08T17:12:48;20.10;57.50
10089;DHT22;51898;49.864;8.550;2023-08-08T17:15:50;20.10;57.80
10089;DHT22;51898;49.864;8.550;2023-08-08T17:18:51;20.10;58.50
10089;DHT22;51898;49.864;8.550;2023-08-08T17:21:54;20.10;58.60
10089;DHT22;51898;49.864;8.550;2023-08-08T17:25:00;20.10;58.40
10089;DHT22;51898;49.864;8.550;2023-08-08T17:28:31;20.00;58.60
10089;DHT22;51898;49.864;8.550;2023-08-08T17:31:33;20.00;59.00
10089;DHT22;51898;49.864;8.550;2023-08-08T17:34:36;20.00;59.30
10089;DHT22;51898;49.864;8.550;2023-08-08T17:37:38;20.00;59.50
10089;DHT22;51898;49.864;8.550;2023-08-08T17:40:40;20.00;59.70
10089;DHT22;51898;49.864;8.550;2023-08-08T17:43:41;19.90;60.00
10089;DHT22;51898;49.864;8.550;2023-08-08T17:46:43;19.80;60.60
10089;DHT22;51898;49.864;8.550;2023-08-08T17:49:45;19.60;60.80
10089;DHT22;51898;49.864;8.550;2023-08-08T17:52:47;19.60;61.20
10089;DHT22;51898;49.864;8.550;2023-08-08T17:55:49;19.50;61.50
10089;DHT22;51898;49.864;8.550;2023-08-08T17:58:51;19.50;61.60
10089;DHT22;51898;49.864;8.550;2023-08-08T18:01:54;19.50;62.20
10089;DHT22;51898;49.864;8.550;2023-08-08T18:04:56;19.40;62.50
10089;DHT22;51898;49.864;8.550;2023-08-08T18:07:57;19.40;62.50
10089;DHT22;51898;49.864;8.550;2023-08-08T18:10:59;19.40;62.70
10089;DHT22;51898;49.864;8.550;2023-08-08T18:14:01;19.30;62.90
10089;DHT22;51898;49.864;8.550;2023-08-08T18:17:03;19.30;62.80
10089;DHT22;51898;49.864;8.550;2023-08-08T18:20:06;19.30;62.90
10089;DHT22;51898;49.864;8.550;2023-08-08T18:23:10;19.30;63.10
10089;DHT22;51898;49.864;8.550;2023-08-08T18:26:12;19.20;63.60
10089;DHT22;51898;49.864;8.550;2023-08-08T18:29:18;19.20;63.40
10089;DHT22;51898;49.864;8.550;2023-08-08T18:32:20;19.10;63.90
10089;DHT22;51898;49.864;8.550;2023-08-08T18:35:22;19.10;63.90
10089;DHT22;51898;49.864;8.550;2023-08-08T18:38:24;19.10;64.30
10089;DHT22;51898;49.864;8.550;2023-08-08T18:41:26;19.00;64.30
10089;DHT22;51898;49.864;8.550;2023-08-08T18:44:28;19.00;64.50
10089;DHT22;51898;49.864;8.550;2023-08-08T18:47:30;19.00;64.70
10089;DHT22;51898;49.864;8.550;2023-08-08T18:50:31;18.90;65.30
10089;DHT22;51898;49.864;8.550;2023-08-08T18:53:33;18.90;65.60
10089;DHT22;51898;49.864;8.550;2023-08-08T18:56:36;18.90;65.50
10089;DHT22;51898;49.864;8.550;2023-08-08T18:59:38;18.90;65.50
10089;DHT22;51898;49.864;8.550;2023-08-08T19:02:40;18.80;65.70
10089;DHT22;51898;49.864;8.550;2023-08-08T19:05:42;18.70;66.00
10089;DHT22;51898;49.864;8.550;2023-08-08T19:08:44;18.70;66.10
10089;DHT22;51898;49.864;8.550;2023-08-08T19:11:48;18.60;66.20
10089;DHT22;51898;49.864;8.550;2023-08-08T19:14:50;18.60;66.70
10089;DHT22;51898;49.864;8.550;2023-08-08T19:17:51;18.60;66.70
10089;DHT22;51898;49.864;8.550;2023-08-08T19:20:57;18.60;66.90
10089;DHT22;51898;49.864;8.550;2023-08-08T19:23:59;18.50;67.10
10089;DHT22;51898;49.864;8.550;2023-08-08T19:27:00;18.50;67.40
10089;DHT22;51898;49.864;8.550;2023-08-08T19:30:02;18.50;67.50
10089;DHT22;51898;49.864;8.550;2023-08-08T19:33:04;18.50;67.10
10089;DHT22;51898;49.864;8.550;2023-08-08T19:36:06;18.40;67.60
10089;DHT22;51898;49.864;8.550;2023-08-08T19:39:10;18.40;67.30
10089;DHT22;51898;49.864;8.550;2023-08-08T19:42:11;18.40;66.70
10089;DHT22;51898;49.864;8.550;2023-08-08T19:45:13;18.40;66.90
10089;DHT22;51898;49.864;8.550;2023-08-08T19:48:15;18.40;67.10
10089;DHT22;51898;49.864;8.550;2023-08-08T19:51:17;18.40;67.00